Time;durP1;ratioP1;P1;durP2;ratioP2;P2;SDS_P1;SDS_P2;PMS_P1;PMS_P2;Temp;Humidity;BMP_temperature;BMP_pressure;BME280_temperature;BME280_humidity;BME280_pressure;Samples;Min_cycle;Max_cycle;Signal;HPM_P1;HPM_P2
2020/12/25 00:00:16;;;;;;;19.50;9.00;;;;;;;14.24;66.38;101642.69;5032579;28;20037;-42
2020/12/25 00:02:41;;;;;;;12.57;8.35;;;;;;;14.25;66.60;101636.19;5033205;28;20040;-43
2020/12/25 00:05:07;;;;;;;12.27;7.78;;;;;;;14.26;66.65;101637.03;5032190;28;20056;-42
2020/12/25 00:07:32;;;;;;;14.30;7.72;;;;;;;14.24;66.54;101637.28;5031095;28;20029;-46
2020/12/25 00:09:58;;;;;;;15.65;10.80;;;;;;;14.15;66.57;101633.34;5032826;28;20033;-42
2020/12/25 00:12:23;;;;;;;13.85;7.85;;;;;;;14.13;66.84;101632.75;5032638;28;20041;-42
2020/12/25 00:14:49;;;;;;;19.52;7.45;;;;;;;14.18;66.50;101628.28;5032745;28;20466;-45
2020/12/25 00:17:14;;;;;;;16.45;5.88;;;;;;;14.19;66.85;101629.09;5033235;28;20045;-42
2020/12/25 00:19:39;;;;;;;10.63;5.97;;;;;;;14.23;67.17;101632.13;5024318;28;20636;-42
2020/12/25 00:22:05;;;;;;;9.25;4.40;;;;;;;14.26;66.22;101628.94;5016536;28;20038;-43
2020/12/25 00:24:31;;;;;;;9.82;4.72;;;;;;;14.25;66.02;101613.81;5030911;28;20095;-43
2020/12/25 00:26:56;;;;;;;12.55;3.47;;;;;;;14.32;65.83;101617.19;5033091;28;20037;-42
2020/12/25 00:29:21;;;;;;;10.32;3.47;;;;;;;14.31;65.59;101615.56;5032581;28;20136;-48
2020/12/25 00:31:47;;;;;;;10.02;5.15;;;;;;;14.31;64.94;101616.38;5032996;28;20430;-47
2020/12/25 00:34:12;;;;;;;5.80;3.28;;;;;;;14.25;65.21;101611.94;5032460;28;20437;-47
2020/12/25 00:36:43;;;;;;;8.05;3.60;;;;;;;14.22;65.23;101614.28;5032838;28;20029;-43
2020/12/25 00:39:11;;;;;;;6.70;4.13;;;;;;;14.19;65.58;101615.59;5025812;28;20463;-44
2020/12/25 00:41:43;;;;;;;6.72;3.55;;;;;;;14.13;65.06;101616.56;5018106;28;20045;-43
2020/12/25 00:44:09;;;;;;;5.05;2.42;;;;;;;14.04;65.95;101615.31;5017197;28;20070;-47
2020/12/25 00:46:35;;;;;;;8.57;4.03;;;;;;;14.02;65.92;101612.06;5018618;28;20080;-44
2020/12/25 00:49:00;;;;;;;6.22;4.35;;;;;;;13.99;66.25;101606.09;5027161;28;20120;-47
2020/12/25 00:51:26;;;;;;;10.15;5.05;;;;;;;13.95;66.19;101607.59;5032253;28;20459;-44
2020/12/25 00:53:51;;;;;;;3.97;3.05;;;;;;;13.99;65.84;101605.28;5032035;28;20456;-44
2020/12/25 00:56:17;;;;;;;7.13;4.07;;;;;;;13.98;65.52;101592.84;5032017;28;20048;-44
2020/12/25 00:58:43;;;;;;;9.02;5.60;;;;;;;13.95;66.03;101588.72;5032154;28;20045;-41
2020/12/25 01:01:11;;;;;;;8.35;4.80;;;;;;;13.93;65.90;101588.16;5032031;28;20075;-45
2020/12/25 01:03:38;;;;;;;6.43;4.72;;;;;;;13.91;66.54;101587.59;5031816;28;20231;-43
2020/12/25 01:06:16;;;;;;;7.72;5.38;;;;;;;13.91;66.07;101587.59;5031911;28;20384;-45
2020/12/25 01:08:45;;;;;;;8.68;5.28;;;;;;;13.89;66.46;101581.63;5028331;28;20076;-42
2020/12/25 01:11:11;;;;;;;12.38;6.45;;;;;;;13.92;66.40;101586.53;5016773;28;20392;-45
2020/12/25 01:13:38;;;;;;;6.70;5.25;;;;;;;13.92;67.01;101583.84;5017538;28;20451;-45
2020/12/25 01:16:06;;;;;;;9.68;5.70;;;;;;;13.90;66.78;101582.44;5017234;28;20439;-44
2020/12/25 01:18:32;;;;;;;16.77;5.43;;;;;;;13.87;66.94;101578.34;5031877;28;20044;-44
2020/12/25 01:20:58;;;;;;;12.15;7.55;;;;;;;13.83;66.96;101582.56;5031765;28;20060;-43
2020/12/25 01:23:24;;;;;;;14.50;7.15;;;;;;;13.77;66.98;101584.38;5031474;28;20440;-43
2020/12/25 01:25:49;;;;;;;9.75;6.80;;;;;;;13.71;67.17;101581.81;5031635;28;20460;-44
2020/12/25 01:28:15;;;;;;;9.50;7.10;;;;;;;13.72;66.82;101580.75;5031526;28;20490;-43
2020/12/25 01:30:41;;;;;;;16.13;7.30;;;;;;;13.76;66.51;101590.81;5031455;28;20117;-44
2020/12/25 01:33:07;;;;;;;4.47;3.25;;;;;;;13.77;66.48;101586.25;5031321;28;20037;-45
2020/12/25 01:35:32;;;;;;;8.27;2.92;;;;;;;13.81;66.56;101590.09;5029110;28;20050;-43
2020/12/25 01:37:58;;;;;;;10.05;3.75;;;;;;;13.80;66.10;101591.16;5031100;28;20565;-45
2020/12/25 01:40:23;;;;;;;9.88;5.57;;;;;;;13.78;66.63;101596.78;5031210;28;20396;-42
2020/12/25 01:42:49;;;;;;;16.13;4.43;;;;;;;13.77;66.38;101597.84;5030921;28;20041;-45
2020/12/25 01:45:14;;;;;;;25.50;3.50;;;;;;;13.84;66.52;101605.78;5031282;28;20166;-44
2020/12/25 01:47:42;;;;;;;4.53;2.53;;;;;;;13.90;65.44;101602.16;5031083;28;20037;-42
2020/12/25 01:50:07;;;;;;;4.93;3.05;;;;;;;13.85;65.45;101599.34;5031257;28;20038;-44
2020/12/25 01:52:35;;;;;;;7.57;2.90;;;;;;;13.76;66.30;101608.84;5029089;28;20037;-44
2020/12/25 01:55:02;;;;;;;9.10;4.03;;;;;;;13.73;66.20;101607.47;5030992;28;20503;-44
2020/12/25 01:57:28;;;;;;;7.65;5.13;;;;;;;13.72;66.18;101600.44;5030589;28;20653;-44
2020/12/25 01:59:55;;;;;;;8.38;5.22;;;;;;;13.65;66.48;101588.16;5030138;28;20384;-43
2020/12/25 02:02:24;;;;;;;8.32;4.00;;;;;;;13.71;65.97;101590.72;5030938;28;20068;-44
2020/12/25 02:04:49;;;;;;;15.15;4.22;;;;;;;13.67;66.59;101594.13;5025378;28;20029;-48
2020/12/25 02:07:15;;;;;;;6.15;3.90;;;;;;;13.65;66.32;101598.94;5031289;28;20045;-43
2020/12/25 02:09:40;;;;;;;5.78;3.33;;;;;;;13.65;66.15;101596.25;5030355;28;20088;-46
2020/12/25 02:12:06;;;;;;;5.88;3.63;;;;;;;13.64;66.24;101587.34;5031264;28;20821;-46
2020/12/25 02:14:32;;;;;;;4.50;2.50;;;;;;;13.74;65.63;101592.09;5030850;28;20049;-44
2020/12/25 02:16:57;;;;;;;7.00;3.25;;;;;;;13.70;65.38;101588.28;5031243;28;20502;-42
2020/12/25 02:19:23;;;;;;;12.30;7.80;;;;;;;13.69;65.13;101590.16;5030984;28;20092;-44
2020/12/25 02:21:48;;;;;;;8.25;5.13;;;;;;;13.64;64.99;101594.59;5031097;28;20093;-44
2020/12/25 02:24:13;;;;;;;6.10;3.58;;;;;;;13.70;65.15;101582.88;5030589;28;20738;-43
2020/12/25 02:26:39;;;;;;;8.60;3.83;;;;;;;13.60;64.74;101587.00;5031061;28;20068;-42
2020/12/25 02:29:04;;;;;;;2.47;1.80;;;;;;;13.70;64.87;101574.78;5030879;28;20044;-45
2020/12/25 02:31:30;;;;;;;3.08;2.13;;;;;;;13.63;64.55;101592.97;5030870;28;20033;-42
2020/12/25 02:33:55;;;;;;;11.48;2.83;;;;;;;13.53;65.20;101594.38;5030455;28;20045;-43
2020/12/25 02:36:21;;;;;;;11.65;2.75;;;;;;;13.49;64.70;101581.66;5030827;28;20038;-41
2020/12/25 02:38:46;;;;;;;4.63;2.00;;;;;;;13.54;64.03;101584.44;5030635;28;20177;-43
2020/12/25 02:41:12;;;;;;;4.97;2.33;;;;;;;13.53;64.17;101574.72;5030654;28;20044;-44
2020/12/25 02:43:37;;;;;;;3.70;2.25;;;;;;;13.59;64.02;101582.66;5030418;28;20037;-42
2020/12/25 02:46:03;;;;;;;4.63;1.67;;;;;;;13.60;63.44;101584.31;5034187;28;20348;-43
2020/12/25 02:48:29;;;;;;;11.40;2.78;;;;;;;13.57;62.87;101578.59;5034421;28;20045;-42
2020/12/25 02:50:55;;;;;;;8.35;4.80;;;;;;;13.56;63.87;101579.63;5034373;28;20059;-43
2020/12/25 02:53:20;;;;;;;12.13;3.30;;;;;;;13.53;63.20;101577.41;5034004;28;20505;-42
2020/12/25 02:55:46;;;;;;;10.30;3.95;;;;;;;13.60;62.21;101572.69;5033953;28;20021;-44
2020/12/25 02:58:11;;;;;;;8.23;3.20;;;;;;;13.55;62.89;101559.13;5034257;28;20044;-42
2020/12/25 03:00:37;;;;;;;4.03;1.70;;;;;;;13.60;61.32;101559.22;5034431;28;20064;-42
2020/12/25 03:03:02;;;;;;;6.13;1.95;;;;;;;13.66;59.92;101554.78;5034346;28;20044;-42
2020/12/25 03:05:27;;;;;;;5.53;3.08;;;;;;;13.63;60.60;101557.94;5034113;28;20072;-44
2020/12/25 03:07:53;;;;;;;6.35;3.95;;;;;;;13.63;59.80;101549.88;5034018;28;20564;-42
2020/12/25 03:10:18;;;;;;;10.70;3.17;;;;;;;13.64;60.24;101554.19;5033392;28;20496;-42
2020/12/25 03:12:44;;;;;;;17.00;3.78;;;;;;;13.59;61.04;101554.91;5034160;28;20467;-48
2020/12/25 03:15:09;;;;;;;10.50;3.22;;;;;;;13.51;61.85;101541.81;5033971;28;20034;-47
2020/12/25 03:17:35;;;;;;;7.20;2.97;;;;;;;13.59;61.27;101542.25;5034373;28;20041;-42
2020/12/25 03:20:00;;;;;;;5.50;3.15;;;;;;;13.60;60.96;101548.44;5028424;28;20523;-43
2020/12/25 03:22:25;;;;;;;5.95;2.60;;;;;;;13.68;59.99;101552.66;5033982;28;20123;-43
2020/12/25 03:24:51;;;;;;;2.55;1.48;;;;;;;13.69;59.83;101551.59;5033519;28;20037;-42
2020/12/25 03:27:16;;;;;;;4.28;2.47;;;;;;;13.73;59.30;101541.97;5033990;28;20045;-43
2020/12/25 03:29:42;;;;;;;5.47;1.45;;;;;;;13.72;58.60;101548.41;5033828;28;20636;-43
2020/12/25 03:32:07;;;;;;;3.90;2.53;;;;;;;13.72;59.27;101543.84;5033924;28;20030;-43
2020/12/25 03:34:33;;;;;;;1.88;0.73;;;;;;;13.71;58.72;101546.75;5031705;28;20045;-44
2020/12/25 03:36:58;;;;;;;3.42;1.08;;;;;;;13.81;59.23;101557.75;5033869;28;20080;-42
2020/12/25 03:39:24;;;;;;;5.28;1.08;;;;;;;13.87;58.38;101554.09;5033499;28;20472;-43
2020/12/25 03:41:52;;;;;;;3.50;1.63;;;;;;;13.78;58.16;101548.28;5033384;28;20040;-42
2020/12/25 03:44:18;;;;;;;0.85;0.35;;;;;;;13.76;58.32;101554.94;5033457;28;20049;-42
2020/12/25 03:46:44;;;;;;;2.28;1.00;;;;;;;13.75;59.29;101559.53;5033069;28;20434;-42
2020/12/25 03:49:09;;;;;;;4.10;1.33;;;;;;;13.85;58.46;101552.69;5033397;28;20124;-41
2020/12/25 03:51:35;;;;;;;1.70;1.23;;;;;;;13.86;59.18;101547.06;5033502;28;20041;-43
2020/12/25 03:54:01;;;;;;;9.57;1.48;;;;;;;13.83;58.45;101544.03;5032874;28;20116;-43
2020/12/25 03:56:26;;;;;;;0.98;0.28;;;;;;;13.76;58.05;101539.63;5033246;28;20044;-41
2020/12/25 03:58:52;;;;;;;11.70;1.25;;;;;;;13.79;58.11;101549.91;5033370;28;20041;-43
2020/12/25 04:01:17;;;;;;;3.92;0.95;;;;;;;13.73;57.76;101544.69;5032365;28;20120;-43
2020/12/25 04:03:43;;;;;;;5.60;1.23;;;;;;;13.75;58.55;101547.94;5032628;28;20060;-41
2020/12/25 04:06:08;;;;;;;8.85;1.58;;;;;;;13.79;57.97;101554.47;5032988;28;20474;-44
2020/12/25 04:08:34;;;;;;;5.13;0.88;;;;;;;13.80;58.75;101554.25;5033076;28;20033;-44
2020/12/25 04:10:59;;;;;;;1.42;1.00;;;;;;;13.77;57.30;101556.59;5032862;28;20039;-42
2020/12/25 04:13:25;;;;;;;6.60;1.35;;;;;;;13.69;57.06;101554.28;5033169;28;20033;-43
2020/12/25 04:15:50;;;;;;;1.85;1.40;;;;;;;13.70;56.77;101558.63;5032893;28;20044;-43
2020/12/25 04:18:16;;;;;;;0.95;0.65;;;;;;;13.72;56.96;101551.09;5032731;28;20132;-46
2020/12/25 04:20:41;;;;;;;5.88;1.63;;;;;;;13.75;56.96;101558.72;5032815;28;20169;-46
2020/12/25 04:23:07;;;;;;;3.47;1.17;;;;;;;13.70;56.82;101547.84;5032742;28;20037;-44
2020/12/25 04:25:32;;;;;;;3.63;1.75;;;;;;;13.73;56.89;101545.47;5032613;28;20045;-47
2020/12/25 04:27:58;;;;;;;0.17;0.17;;;;;;;13.73;56.71;101545.47;5032454;28;20467;-42
2020/12/25 04:30:24;;;;;;;2.83;1.15;;;;;;;13.82;56.72;101554.00;5032569;28;20041;-42
2020/12/25 04:32:49;;;;;;;1.08;0.50;;;;;;;13.83;57.86;101560.19;5032925;28;20037;-43
2020/12/25 04:35:15;;;;;;;1.83;1.08;;;;;;;13.83;56.45;101560.19;5032258;28;20057;-43
2020/12/25 04:37:40;;;;;;;3.53;1.58;;;;;;;13.76;56.44;101554.94;5032781;28;20042;-41
2020/12/25 04:40:06;;;;;;;4.47;0.75;;;;;;;13.61;56.08;101552.78;5032376;28;20033;-42
2020/12/25 04:42:39;;;;;;;2.80;1.70;;;;;;;13.60;56.30;101548.44;5032057;28;20080;-43
2020/12/25 04:45:04;;;;;;;14.75;0.88;;;;;;;13.64;56.81;101549.63;5032073;28;20518;-42
2020/12/25 04:47:30;;;;;;;4.90;1.38;;;;;;;13.66;55.91;101560.97;5032094;28;20026;-42
2020/12/25 04:49:56;;;;;;;2.47;1.25;;;;;;;13.65;56.49;101555.81;5032083;28;20732;-42
2020/12/25 04:52:21;;;;;;;4.10;1.42;;;;;;;13.59;55.75;101546.84;5031451;28;20044;-41
2020/12/25 04:54:46;;;;;;;9.75;0.98;;;;;;;13.58;57.01;101550.56;5030578;28;20554;-42
2020/12/25 04:57:12;;;;;;;2.35;1.23;;;;;;;13.57;56.64;101551.66;5032403;28;20041;-41
2020/12/25 04:59:38;;;;;;;2.20;0.85;;;;;;;13.57;56.62;101563.22;5032121;28;20046;-42
2020/12/25 05:02:03;;;;;;;1.73;0.73;;;;;;;13.51;56.77;101569.56;5032273;28;20052;-43
2020/12/25 05:04:29;;;;;;;4.05;1.38;;;;;;;13.49;57.48;101568.19;5031983;28;20061;-41
2020/12/25 05:06:54;;;;;;;5.75;1.38;;;;;;;13.56;57.43;101555.38;5025977;28;20099;-43
2020/12/25 05:09:24;;;;;;;10.75;1.23;;;;;;;13.55;56.67;101564.50;5031542;28;20090;-43
2020/12/25 05:11:55;;;;;;;8.85;1.50;;;;;;;13.53;57.28;101567.44;5026095;28;20036;-42
2020/12/25 05:14:29;;;;;;;10.60;1.30;;;;;;;13.52;59.54;101570.41;5026074;28;20041;-41
2020/12/25 05:16:59;;;;;;;3.60;0.88;;;;;;;13.34;57.48;101564.13;5026610;28;20037;-41
2020/12/25 05:19:31;;;;;;;2.40;0.98;;;;;;;13.43;57.21;101564.56;5031624;28;20037;-44
2020/12/25 05:21:59;;;;;;;3.75;0.63;;;;;;;13.54;57.10;101561.00;5031847;28;20052;-42
2020/12/25 05:24:25;;;;;;;4.40;0.93;;;;;;;13.52;57.25;101562.31;5031386;28;20037;-44
2020/12/25 05:26:55;;;;;;;3.28;0.93;;;;;;;13.53;56.65;101562.06;5031802;28;20486;-44
2020/12/25 05:29:26;;;;;;;11.80;1.45;;;;;;;13.41;57.34;101561.28;5031228;28;20038;-44
2020/12/25 05:31:53;;;;;;;6.13;1.50;;;;;;;13.56;56.97;101561.59;5026235;28;20037;-45
2020/12/25 05:34:19;;;;;;;0.73;0.22;;;;;;;13.53;58.16;101559.38;5031179;28;20053;-41
2020/12/25 05:36:52;;;;;;;2.03;0.95;;;;;;;13.59;57.37;101566.50;5031690;28;20037;-42
2020/12/25 05:39:31;;;;;;;5.70;0.63;;;;;;;13.55;57.54;101551.03;5031237;28;20048;-42
2020/12/25 05:42:02;;;;;;;5.18;1.58;;;;;;;13.63;57.18;101549.88;5026444;28;20037;-42
2020/12/25 05:44:30;;;;;;;5.45;2.45;;;;;;;13.60;56.84;101562.75;5031054;28;20049;-41
2020/12/25 05:46:59;;;;;;;5.10;2.10;;;;;;;13.61;57.64;101556.28;5030552;28;20045;-42
2020/12/25 05:49:29;;;;;;;3.70;0.43;;;;;;;13.59;57.80;101560.31;5030975;28;20029;-44
2020/12/25 05:51:56;;;;;;;10.88;1.45;;;;;;;13.54;57.83;101558.31;5031468;28;20029;-41
2020/12/25 05:54:27;;;;;;;6.38;1.48;;;;;;;13.51;56.93;101555.28;5031053;28;20033;-42
2020/12/25 05:56:54;;;;;;;10.75;0.80;;;;;;;13.30;56.55;101556.72;5025807;28;20037;-42
2020/12/25 05:59:25;;;;;;;9.02;1.70;;;;;;;13.48;57.33;101556.59;5030877;28;20056;-42
2020/12/25 06:01:55;;;;;;;1.00;0.90;;;;;;;13.36;56.87;101555.81;5025053;28;20183;-42
2020/12/25 06:04:25;;;;;;;3.85;1.10;;;;;;;13.49;57.14;101555.53;5031432;28;20045;-42
2020/12/25 06:06:51;;;;;;;2.65;0.88;;;;;;;13.54;57.20;101552.13;5031062;28;20112;-41
2020/12/25 06:09:19;;;;;;;2.15;0.98;;;;;;;13.57;57.56;101549.75;5030142;28;20490;-43
2020/12/25 06:11:50;;;;;;;9.65;1.20;;;;;;;13.54;57.12;101547.53;5031232;28;20034;-43
2020/12/25 06:14:17;;;;;;;6.90;1.65;;;;;;;13.52;56.38;101538.88;5025841;28;20407;-43
2020/12/25 06:16:58;;;;;;;1.55;0.70;;;;;;;13.59;56.98;101549.53;5031223;28;20586;-42
2020/12/25 06:19:33;;;;;;;2.42;0.40;;;;;;;13.67;57.14;101546.44;5031608;28;20037;-42
2020/12/25 06:22:01;;;;;;;3.78;1.88;;;;;;;13.65;56.60;101542.34;5035360;28;20116;-42
2020/12/25 06:24:32;;;;;;;3.20;0.63;;;;;;;13.63;57.19;101537.19;5035023;28;20192;-42
2020/12/25 06:27:00;;;;;;;1.52;1.30;;;;;;;13.65;56.53;101537.78;5035334;28;20476;-43
2020/12/25 06:29:27;;;;;;;0.43;0.30;;;;;;;13.70;56.67;101534.38;5034654;28;20030;-42
2020/12/25 06:31:55;;;;;;;10.40;1.30;;;;;;;13.66;56.89;101527.84;5035003;28;20033;-44
2020/12/25 06:34:21;;;;;;;4.25;0.95;;;;;;;13.58;56.36;101531.72;5034606;28;20061;-43
2020/12/25 06:36:48;;;;;;;6.50;1.73;;;;;;;13.68;56.26;101534.59;5034749;28;20045;-44
2020/12/25 06:39:16;;;;;;;9.02;1.13;;;;;;;13.68;56.39;101533.78;5034411;28;20139;-46
2020/12/25 06:41:42;;;;;;;11.57;1.42;;;;;;;13.59;56.98;101538.75;5034294;28;20052;-45
2020/12/25 06:44:15;;;;;;;1.63;0.90;;;;;;;13.66;56.46;101530.53;5034481;28;20037;-42
2020/12/25 06:46:48;;;;;;;2.85;0.82;;;;;;;13.68;56.98;101533.78;5033421;28;20051;-42
2020/12/25 06:49:15;;;;;;;5.60;2.08;;;;;;;13.68;56.82;101529.22;5034284;28;20476;-44
2020/12/25 06:51:46;;;;;;;20.85;10.48;;;;;;;13.68;56.63;101523.81;5034721;28;20041;-42
2020/12/25 06:54:19;;;;;;;9.32;5.85;;;;;;;13.71;56.56;101530.59;5034274;28;20057;-41
2020/12/25 06:56:47;;;;;;;5.90;3.55;;;;;;;13.66;56.85;101525.13;5034587;28;20090;-42
2020/12/25 06:59:15;;;;;;;5.40;1.35;;;;;;;13.65;57.32;101523.50;5033652;28;20067;-46
2020/12/25 07:01:43;;;;;;;8.02;2.10;;;;;;;13.66;58.00;101522.44;5034420;28;20132;-47
2020/12/25 07:04:31;;;;;;;3.55;0.90;;;;;;;13.50;58.92;101522.16;5027732;28;20404;-48
2020/12/25 07:07:00;;;;;;;1.73;0.45;;;;;;;13.58;57.65;101531.72;5029308;28;20033;-46
2020/12/25 07:09:37;;;;;;;3.17;0.60;;;;;;;13.60;58.90;101529.59;5033918;28;20096;-41
2020/12/25 07:12:23;;;;;;;3.65;0.68;;;;;;;13.66;56.96;101527.84;5033817;28;20407;-44
2020/12/25 07:14:49;;;;;;;1.13;0.50;;;;;;;13.72;56.10;101534.94;5028268;28;20048;-42
2020/12/25 07:17:15;;;;;;;7.88;1.05;;;;;;;13.72;56.86;101537.63;5034288;28;20052;-47
2020/12/25 07:19:43;;;;;;;1.63;0.75;;;;;;;13.40;60.13;101538.09;5034182;28;20041;-46
2020/12/25 07:22:09;;;;;;;1.58;0.43;;;;;;;13.44;59.22;101539.25;5034151;28;20091;-46
2020/12/25 07:24:44;;;;;;;3.67;1.45;;;;;;;13.50;58.02;101546.41;5034032;28;20041;-45
2020/12/25 07:27:11;;;;;;;2.80;0.90;;;;;;;13.66;59.56;101544.00;5034129;28;20041;-46
2020/12/25 07:29:37;;;;;;;3.72;0.38;;;;;;;13.57;57.67;101544.38;5033789;28;20068;-47
2020/12/25 07:32:04;;;;;;;4.47;1.60;;;;;;;13.65;57.16;101543.16;5033773;28;20108;-42
2020/12/25 07:34:30;;;;;;;1.40;0.85;;;;;;;13.49;59.51;101544.75;5033418;28;20484;-43
2020/12/25 07:36:56;;;;;;;2.45;1.10;;;;;;;13.37;58.78;101546.66;5033917;28;20113;-44
2020/12/25 07:39:23;;;;;;;1.10;0.70;;;;;;;13.33;60.17;101551.69;5027226;28;20120;-47
2020/12/25 07:41:50;;;;;;;1.35;0.43;;;;;;;13.41;58.77;101550.50;5027871;28;20030;-46
2020/12/25 07:44:23;;;;;;;3.00;1.23;;;;;;;13.60;57.77;101556.53;5021141;28;20061;-44
2020/12/25 07:46:49;;;;;;;4.30;1.33;;;;;;;13.46;57.46;101553.28;5024986;28;20388;-44
2020/12/25 07:49:15;;;;;;;4.00;1.40;;;;;;;13.57;58.15;101557.03;5032502;28;20045;-43
2020/12/25 07:51:41;;;;;;;1.77;0.68;;;;;;;13.59;57.94;101552.22;5032533;28;20422;-49
2020/12/25 07:54:07;;;;;;;6.05;1.60;;;;;;;13.65;60.56;101553.13;5022445;28;20143;-57
2020/12/25 07:56:34;;;;;;;2.50;1.27;;;;;;;13.57;58.19;101559.72;5024156;28;20033;-57
2020/12/25 07:59:01;;;;;;;4.03;1.02;;;;;;;13.41;59.29;101566.66;5027359;28;20107;-56
2020/12/25 08:01:30;;;;;;;4.35;1.67;;;;;;;13.37;58.12;101573.59;5025864;28;20037;-59
2020/12/25 08:04:00;;;;;;;9.98;1.73;;;;;;;13.47;58.19;101571.09;5028657;28;20101;-54
2020/12/25 08:06:27;;;;;;;13.23;2.97;;;;;;;13.46;57.46;101566.75;5026434;28;20029;-54
2020/12/25 08:08:59;;;;;;;5.47;3.42;;;;;;;13.30;57.40;101579.06;5028028;28;20642;-54
2020/12/25 08:11:26;;;;;;;2.10;1.48;;;;;;;13.22;59.58;101588.34;5027286;28;20051;-51
2020/12/25 08:13:55;;;;;;;1.70;0.80;;;;;;;13.32;59.60;101579.66;5029496;28;20038;-53
2020/12/25 08:16:21;;;;;;;2.50;1.40;;;;;;;13.27;61.02;101576.88;5029368;28;20040;-54
2020/12/25 08:18:48;;;;;;;3.80;1.77;;;;;;;13.13;57.09;101578.16;5028721;28;20065;-57
2020/12/25 08:21:15;;;;;;;4.63;1.42;;;;;;;13.23;58.06;101589.16;5028814;28;20033;-53
2020/12/25 08:23:40;;;;;;;3.13;1.33;;;;;;;13.31;57.57;101583.44;5028183;28;20045;-51
2020/12/25 08:26:07;;;;;;;3.55;2.35;;;;;;;13.36;57.84;101590.81;5027127;28;20030;-56
2020/12/25 08:28:33;;;;;;;3.05;1.92;;;;;;;13.28;56.92;101586.56;5028459;28;20148;-55
2020/12/25 08:31:13;;;;;;;9.52;1.88;;;;;;;13.26;57.24;101599.47;5028700;28;20388;-54
2020/12/25 08:33:39;;;;;;;5.13;1.40;;;;;;;13.17;57.22;101608.97;5028467;28;20052;-54
2020/12/25 08:36:10;;;;;;;2.13;1.30;;;;;;;13.22;57.11;101607.19;5028693;28;20041;-59
2020/12/25 08:38:42;;;;;;;3.80;1.17;;;;;;;13.38;56.96;101594.91;5027102;28;20045;-54
2020/12/25 08:41:08;;;;;;;2.75;1.75;;;;;;;13.17;57.47;101601.69;5024022;28;20065;-64
2020/12/25 08:43:36;;;;;;;3.53;1.23;;;;;;;13.26;57.61;101604.03;5010365;28;20041;-57
2020/12/25 08:46:03;;;;;;;2.15;1.23;;;;;;;13.33;57.17;101602.88;5022151;28;20029;-59
2020/12/25 08:48:30;;;;;;;1.75;1.23;;;;;;;13.20;57.83;101605.78;5019813;28;20143;-57
2020/12/25 08:51:12;;;;;;;4.13;2.40;;;;;;;13.25;58.28;101608.56;5017255;28;20037;-58
2020/12/25 08:53:39;;;;;;;9.27;2.50;;;;;;;13.33;57.78;101610.16;5022831;28;20060;-57
2020/12/25 08:56:16;;;;;;;10.38;2.30;;;;;;;13.37;57.41;101612.09;5023405;28;20029;-60
2020/12/25 08:58:53;;;;;;;10.57;5.25;;;;;;;13.43;56.99;101615.75;5022623;28;20045;-58
2020/12/25 09:01:19;;;;;;;8.68;2.55;;;;;;;13.47;57.51;101608.00;5018170;28;20060;-58
2020/12/25 09:03:44;;;;;;;3.92;3.08;;;;;;;13.48;56.61;101590.78;5024350;28;20140;-55
2020/12/25 09:06:10;;;;;;;7.40;3.22;;;;;;;13.37;56.17;101605.91;5020926;28;20033;-57
2020/12/25 09:08:37;;;;;;;2.63;2.05;;;;;;;13.35;58.36;101616.09;5022165;28;20067;-55
2020/12/25 09:11:10;;;;;;;8.88;3.88;;;;;;;13.34;57.74;101617.16;5022154;28;20037;-61
2020/12/25 09:13:36;;;;;;;13.30;3.25;;;;;;;13.13;60.39;101618.53;5021785;28;20048;-55
2020/12/25 09:16:02;;;;;;;21.80;4.32;;;;;;;13.18;60.92;101627.56;5022316;28;20041;-56
2020/12/25 09:18:28;;;;;;;3.35;1.85;;;;;;;13.36;61.08;101620.44;5021896;28;20041;-57
2020/12/25 09:20:53;;;;;;;2.92;1.67;;;;;;;13.31;61.28;101617.63;5022687;28;20411;-58
2020/12/25 09:23:18;;;;;;;3.97;2.90;;;;;;;13.34;62.25;101619.84;5021188;28;20143;-61
2020/12/25 09:25:44;;;;;;;4.40;2.03;;;;;;;13.46;61.38;101614.44;5021663;28;20057;-53
2020/12/25 09:28:09;;;;;;;1.63;0.93;;;;;;;13.59;61.12;101609.63;5021509;28;20719;-59
2020/12/25 09:30:35;;;;;;;12.15;7.07;;;;;;;13.41;61.22;101620.53;5021037;28;20048;-59
2020/12/25 09:33:00;;;;;;;9.07;4.68;;;;;;;12.90;61.65;101630.13;5022813;28;20056;-61
2020/12/25 09:35:26;;;;;;;5.20;2.67;;;;;;;12.90;62.22;101638.22;5023915;28;20080;-58
2020/12/25 09:37:51;;;;;;;9.93;4.97;;;;;;;13.03;61.92;101627.22;5022733;28;20037;-57
2020/12/25 09:40:17;;;;;;;6.68;2.25;;;;;;;13.08;61.38;101638.09;5022726;28;20060;-61
2020/12/25 09:42:43;;;;;;;9.50;2.90;;;;;;;12.94;61.34;101631.28;5021879;28;20029;-60
2020/12/25 09:45:08;;;;;;;5.97;3.63;;;;;;;13.12;61.22;101633.88;5023039;28;20135;-58
2020/12/25 09:47:34;;;;;;;8.43;5.35;;;;;;;13.15;61.11;101624.53;5021785;28;20050;-60
2020/12/25 09:49:59;;;;;;;9.60;3.78;;;;;;;13.17;60.23;101623.22;5021807;28;20472;-60
2020/12/25 09:52:25;;;;;;;4.82;2.10;;;;;;;13.20;60.62;101627.31;5026254;28;20482;-59
2020/12/25 09:54:50;;;;;;;11.80;4.22;;;;;;;13.24;60.88;101626.63;5026852;28;20086;-59
2020/12/25 09:57:16;;;;;;;6.50;2.83;;;;;;;12.95;59.30;101633.75;5028102;28;20052;-60
2020/12/25 09:59:41;;;;;;;3.63;1.90;;;;;;;12.82;61.32;101626.72;5028088;28;20037;-57
2020/12/25 10:02:06;;;;;;;6.20;3.38;;;;;;;12.95;61.03;101631.06;5027255;28;20037;-60
2020/12/25 10:04:32;;;;;;;3.72;2.67;;;;;;;13.04;61.40;101632.38;5027856;28;20037;-59
2020/12/25 10:06:57;;;;;;;4.25;2.33;;;;;;;13.06;60.52;101626.75;5028059;28;20041;-59
2020/12/25 10:09:23;;;;;;;9.63;7.22;;;;;;;13.04;60.44;101626.16;5025730;28;20029;-60
2020/12/25 10:11:49;;;;;;;14.23;3.97;;;;;;;13.02;61.23;101630.94;5025092;28;20053;-61
2020/12/25 10:14:14;;;;;;;10.27;7.72;;;;;;;12.78;61.85;101630.94;5027249;28;20037;-57
2020/12/25 10:16:39;;;;;;;6.85;3.95;;;;;;;12.77;60.92;101634.69;5028075;28;20163;-59
2020/12/25 10:19:05;;;;;;;10.00;3.45;;;;;;;12.82;60.71;101632.13;5027074;28;20041;-59
2020/12/25 10:21:31;;;;;;;3.10;1.92;;;;;;;13.08;59.60;101623.81;5027726;28;20041;-60
2020/12/25 10:23:56;;;;;;;12.13;10.00;;;;;;;12.99;61.11;101618.78;5027643;28;20042;-59
2020/12/25 10:26:22;;;;;;;8.75;4.80;;;;;;;13.07;61.07;101625.69;5028166;28;20064;-59
2020/12/25 10:28:47;;;;;;;3.92;2.85;;;;;;;13.07;60.70;101627.56;5027543;28;20064;-60
2020/12/25 10:31:13;;;;;;;5.53;2.65;;;;;;;13.01;61.26;101629.34;5027344;28;20072;-59
2020/12/25 10:33:38;;;;;;;4.25;2.28;;;;;;;12.99;60.78;101626.88;5027797;28;20037;-60
2020/12/25 10:36:04;;;;;;;2.05;1.75;;;;;;;12.97;60.95;101633.53;5027541;28;20061;-60
2020/12/25 10:38:30;;;;;;;5.63;2.75;;;;;;;12.90;62.33;101635.50;5021788;28;20049;-59
2020/12/25 10:40:55;;;;;;;5.45;2.65;;;;;;;12.76;63.06;101633.06;5011797;28;20037;-58
2020/12/25 10:43:21;;;;;;;6.68;3.90;;;;;;;12.47;64.53;101630.19;5025484;28;20056;-59
2020/12/25 10:45:46;;;;;;;6.65;2.58;;;;;;;12.62;64.74;101620.84;5024373;28;20045;-60
2020/12/25 10:48:12;;;;;;;3.67;1.27;;;;;;;12.89;63.96;101620.44;5025975;28;20141;-59
2020/12/25 10:50:37;;;;;;;13.93;4.00;;;;;;;13.06;63.32;101610.59;5021443;28;20046;-59
2020/12/25 10:53:05;;;;;;;12.55;7.15;;;;;;;13.20;63.98;101609.31;5026998;28;20033;-60
2020/12/25 10:55:34;;;;;;;4.82;2.85;;;;;;;13.32;65.57;101606.59;5026872;28;20041;-60
2020/12/25 10:57:59;;;;;;;7.90;2.65;;;;;;;12.98;64.85;101605.56;5024218;28;20060;-59
2020/12/25 11:00:24;;;;;;;6.47;2.45;;;;;;;12.99;64.82;101589.19;5025854;28;20743;-59
2020/12/25 11:02:50;;;;;;;7.18;2.90;;;;;;;13.01;64.73;101570.09;5023251;28;20472;-58
2020/12/25 11:05:16;;;;;;;11.38;4.95;;;;;;;12.81;64.56;101573.94;5026775;28;20068;-59
2020/12/25 11:07:44;;;;;;;10.18;5.97;;;;;;;12.92;65.69;101579.56;5030553;28;20131;-59
2020/12/25 11:10:13;;;;;;;7.38;4.28;;;;;;;13.03;65.19;101578.75;5030725;28;20122;-58
2020/12/25 11:12:38;;;;;;;6.15;3.42;;;;;;;13.10;64.27;101562.50;5031043;28;20234;-59
2020/12/25 11:15:06;;;;;;;7.50;3.50;;;;;;;13.05;64.03;101547.84;5029007;28;20112;-60
2020/12/25 11:17:31;;;;;;;8.63;6.15;;;;;;;13.01;64.73;101548.56;5030780;28;20037;-61
2020/12/25 11:20:00;;;;;;;11.60;6.03;;;;;;;13.09;64.97;101547.38;5030576;28;20033;-60
2020/12/25 11:22:25;;;;;;;5.47;3.83;;;;;;;13.09;63.65;101555.47;5030770;28;20040;-59